createdAt,value
2023-03-28T00:02:46.028Z,1.40
2023-03-28T00:05:34.175Z,1.10
2023-03-28T00:08:23.423Z,0.97
2023-03-28T00:11:19.210Z,1.42
2023-03-28T00:14:08.402Z,1.00
2023-03-28T00:16:57.175Z,1.13
2023-03-28T00:19:47.089Z,1.13
2023-03-28T00:22:38.087Z,1.13
2023-03-28T00:25:27.073Z,1.30
2023-03-28T00:28:16.481Z,1.40
2023-03-28T00:31:05.820Z,1.55
2023-03-28T00:33:54.216Z,1.17
2023-03-28T00:36:42.573Z,1.43
2023-03-28T00:39:31.430Z,1.52
2023-03-28T00:42:21.125Z,1.00
2023-03-28T00:45:12.928Z,1.27
2023-03-28T00:48:04.667Z,1.10
2023-03-28T00:50:53.044Z,1.20
2023-03-28T00:53:42.266Z,1.10
2023-03-28T00:56:34.052Z,1.65
2023-03-28T00:59:25.800Z,1.13
2023-03-28T01:02:15.497Z,2.33
2023-03-28T01:05:04.802Z,2.43
2023-03-28T01:07:56.832Z,1.80
2023-03-28T01:10:46.315Z,2.38
2023-03-28T01:13:38.964Z,1.50
2023-03-28T01:16:30.567Z,2.08
2023-03-28T01:19:36.150Z,1.50
2023-03-28T01:23:04.241Z,2.00
2023-03-28T01:26:32.247Z,1.45
2023-03-28T01:29:49.680Z,1.63
2023-03-28T01:33:09.720Z,1.33
2023-03-28T01:36:33.963Z,1.20
2023-03-28T01:39:36.776Z,1.50
2023-03-28T01:42:33.015Z,1.60
2023-03-28T01:45:28.920Z,3.90
2023-03-28T01:48:26.493Z,1.83
2023-03-28T01:51:24.502Z,1.83
2023-03-28T01:54:18.027Z,1.90
2023-03-28T01:57:14.285Z,1.42
2023-03-28T02:00:13.020Z,1.10
2023-03-28T02:03:06.862Z,1.25
2023-03-28T02:05:57.875Z,1.27
2023-03-28T02:08:47.711Z,1.08
2023-03-28T02:11:37.281Z,1.02
2023-03-28T02:14:30.931Z,1.05
2023-03-28T02:17:21.892Z,1.48
2023-03-28T02:20:14.727Z,1.50
2023-03-28T02:23:06.545Z,1.10
2023-03-28T02:25:54.621Z,1.30
2023-03-28T02:28:44.904Z,1.63
2023-03-28T02:31:35.003Z,1.27
2023-03-28T02:34:23.242Z,1.23
2023-03-28T02:37:25.438Z,1.48
2023-03-28T02:40:29.373Z,1.25
2023-03-28T02:43:45.329Z,1.42
2023-03-28T02:46:43.134Z,1.15
2023-03-28T02:49:50.304Z,1.53
2023-03-28T02:52:51.500Z,1.10
2023-03-28T02:55:44.840Z,1.33
2023-03-28T02:58:38.544Z,1.30
2023-03-28T03:01:29.455Z,1.23
2023-03-28T03:04:18.963Z,1.73
2023-03-28T03:07:08.953Z,1.60
2023-03-28T03:09:57.220Z,1.58
2023-03-28T03:12:46.216Z,1.88
2023-03-28T03:15:35.586Z,1.48
2023-03-28T03:18:24.388Z,1.70
2023-03-28T03:21:13.866Z,1.45
2023-03-28T03:24:01.890Z,1.50
2023-03-28T03:26:49.953Z,1.90
2023-03-28T03:29:39.245Z,1.83
2023-03-28T03:32:27.683Z,1.77
2023-03-28T03:35:39.134Z,1.88
2023-03-28T03:42:24.996Z,1.83
2023-03-28T03:45:19.805Z,1.90
2023-03-28T03:48:07.995Z,2.17
2023-03-28T03:50:55.960Z,1.90
2023-03-28T03:53:44.895Z,1.45
2023-03-28T03:56:33.036Z,1.88
2023-03-28T03:59:22.615Z,1.52
2023-03-28T04:02:12.098Z,1.47
2023-03-28T04:05:00.316Z,1.73
2023-03-28T04:07:48.339Z,2.40
2023-03-28T04:10:36.360Z,2.10
2023-03-28T04:13:24.363Z,2.13
2023-03-28T04:16:13.870Z,2.60
2023-03-28T04:19:01.964Z,2.33
2023-03-28T04:21:52.532Z,2.10
2023-03-28T04:24:41.755Z,2.35
2023-03-28T04:27:31.243Z,1.63
2023-03-28T04:30:19.344Z,2.10
2023-03-28T04:33:08.979Z,2.17
2023-03-28T04:36:00.463Z,1.63
2023-03-28T04:38:49.200Z,1.83
2023-03-28T04:41:37.262Z,1.73
2023-03-28T04:44:25.314Z,1.80
2023-03-28T04:47:13.584Z,1.88
2023-03-28T04:50:02.988Z,1.88
2023-03-28T04:52:51.047Z,1.90
2023-03-28T04:55:39.042Z,2.08
2023-03-28T04:58:27.070Z,1.90
2023-03-28T05:01:15.880Z,1.85
2023-03-28T05:04:04.101Z,1.75
2023-03-28T05:06:53.430Z,2.00
2023-03-28T05:09:41.524Z,1.75
2023-03-28T05:12:29.653Z,1.80
2023-03-28T05:15:23.238Z,1.67
2023-03-28T05:18:11.998Z,1.55
2023-03-28T05:21:00.275Z,2.00
2023-03-28T05:23:52.000Z,1.60
2023-03-28T05:26:40.659Z,1.90
2023-03-28T05:29:31.244Z,2.30
2023-03-28T05:32:19.640Z,2.13
2023-03-28T05:35:10.426Z,2.03
2023-03-28T05:37:58.510Z,2.40
2023-03-28T05:40:48.027Z,2.27
2023-03-28T05:43:36.083Z,2.42
2023-03-28T05:46:24.103Z,2.28
2023-03-28T05:49:12.899Z,2.30
2023-03-28T05:52:00.885Z,2.17
2023-03-28T05:54:51.575Z,2.13
2023-03-28T05:57:41.758Z,2.10
2023-03-28T06:00:30.606Z,2.53
2023-03-28T06:03:29.267Z,2.45
2023-03-28T06:06:17.992Z,2.10
2023-03-28T06:09:06.117Z,2.60
2023-03-28T06:11:54.139Z,2.70
2023-03-28T06:14:43.643Z,2.45
2023-03-28T06:17:31.718Z,2.22
2023-03-28T06:20:19.875Z,2.38
2023-03-28T06:23:07.901Z,2.63
2023-03-28T06:25:55.886Z,2.67
2023-03-28T06:28:44.119Z,2.53
2023-03-28T06:31:33.764Z,2.35
2023-03-28T06:34:22.206Z,2.20
2023-03-28T06:37:10.575Z,2.27
2023-03-28T06:39:58.661Z,2.50
2023-03-28T06:42:46.792Z,2.20
2023-03-28T06:45:34.733Z,2.50
2023-03-28T06:48:29.426Z,2.30
2023-03-28T06:51:17.531Z,2.70
2023-03-28T06:54:05.559Z,2.22
2023-03-28T06:56:53.732Z,2.00
2023-03-28T06:59:42.045Z,2.22
2023-03-28T07:02:30.533Z,2.67
2023-03-28T07:05:20.034Z,2.33
2023-03-28T07:08:08.468Z,2.45
2023-03-28T07:10:56.453Z,2.80
2023-03-28T07:13:44.484Z,2.28
2023-03-28T07:16:32.622Z,2.53
2023-03-28T07:19:20.804Z,2.90
2023-03-28T07:22:13.019Z,2.35
2023-03-28T07:25:00.960Z,2.63
2023-03-28T07:27:49.068Z,2.72
2023-03-28T07:30:37.163Z,2.53
2023-03-28T07:33:35.308Z,2.80
2023-03-28T07:36:25.949Z,3.10
2023-03-28T07:39:15.958Z,2.63
2023-03-28T07:42:05.294Z,2.72
2023-03-28T07:44:53.369Z,2.70
2023-03-28T07:47:41.785Z,2.53
2023-03-28T07:50:29.898Z,2.70
2023-03-28T07:53:18.056Z,2.63
2023-03-28T07:56:11.973Z,2.72
2023-03-28T07:59:01.859Z,2.50
2023-03-28T08:01:49.885Z,2.50
2023-03-28T08:04:39.093Z,2.50
2023-03-28T08:07:27.169Z,2.15
2023-03-28T08:10:15.523Z,2.08
2023-03-28T08:13:04.998Z,2.20
2023-03-28T08:15:55.917Z,2.13
2023-03-28T08:18:43.964Z,2.00
2023-03-28T08:21:32.147Z,1.88
2023-03-28T08:24:32.956Z,1.90
2023-03-28T08:27:23.831Z,2.10
2023-03-28T08:30:14.368Z,1.73
2023-03-28T08:33:04.526Z,2.20
2023-03-28T08:35:52.742Z,2.22
2023-03-28T08:38:40.854Z,1.88
2023-03-28T08:41:48.386Z,2.10
2023-03-28T08:44:51.978Z,1.90
2023-03-28T08:47:49.833Z,2.00
2023-03-28T08:50:43.403Z,2.20
2023-03-28T08:53:35.446Z,2.10
2023-03-28T08:56:23.631Z,2.30
2023-03-28T08:59:15.915Z,2.53
2023-03-28T09:02:05.452Z,2.83
2023-03-28T09:05:11.930Z,2.45
2023-03-28T09:08:23.692Z,2.78
2023-03-28T09:11:27.756Z,2.60
2023-03-28T09:14:34.689Z,2.43
2023-03-28T09:17:29.711Z,2.70
2023-03-28T09:20:23.888Z,2.55
2023-03-28T09:23:26.978Z,2.20
2023-03-28T09:26:18.977Z,2.22
2023-03-28T09:29:11.942Z,2.40
2023-03-28T09:32:04.602Z,2.20
2023-03-28T09:34:53.229Z,2.00
2023-03-28T09:37:44.742Z,2.00
2023-03-28T09:40:34.390Z,2.17
2023-03-28T09:43:32.524Z,2.20
2023-03-28T09:46:30.123Z,2.33
2023-03-28T09:49:20.476Z,1.70
2023-03-28T09:52:19.625Z,1.77
2023-03-28T09:55:17.743Z,1.85
2023-03-28T09:58:11.318Z,1.90
2023-03-28T10:00:59.649Z,1.83
2023-03-28T10:03:53.293Z,2.30
2023-03-28T10:06:41.822Z,1.95
2023-03-28T10:09:29.862Z,2.00
2023-03-28T10:12:24.230Z,1.90
2023-03-28T10:15:35.961Z,1.60
2023-03-28T10:18:28.752Z,1.92
2023-03-28T10:21:18.544Z,1.77
2023-03-28T10:24:09.372Z,1.90
2023-03-28T10:26:59.301Z,2.07
2023-03-28T10:29:49.284Z,2.00
2023-03-28T10:32:37.416Z,2.42
2023-03-28T10:35:30.852Z,2.15
2023-03-28T10:38:20.860Z,2.30
2023-03-28T10:41:23.282Z,2.10
2023-03-28T10:44:19.233Z,2.10
2023-03-28T10:47:14.569Z,2.30
2023-03-28T10:50:02.816Z,1.80
2023-03-28T10:52:55.073Z,2.00
2023-03-28T10:55:54.758Z,2.70
2023-03-28T10:58:51.382Z,2.20
2023-03-28T11:01:49.887Z,2.28
2023-03-28T11:04:58.764Z,2.50
2023-03-28T11:08:01.116Z,2.30
2023-03-28T11:11:00.384Z,2.50
2023-03-28T11:13:55.506Z,2.60
2023-03-28T11:16:53.014Z,2.28
2023-03-28T11:20:08.773Z,2.50
2023-03-28T11:23:11.647Z,3.08
2023-03-28T11:26:08.393Z,3.10
2023-03-28T11:29:13.599Z,3.50
2023-03-28T11:32:10.580Z,3.45
2023-03-28T11:35:08.244Z,3.05
2023-03-28T11:38:02.116Z,3.33
2023-03-28T11:40:55.776Z,3.23
2023-03-28T11:43:51.443Z,2.80
2023-03-28T11:46:44.613Z,2.35
2023-03-28T11:49:36.656Z,2.67
2023-03-28T11:52:34.895Z,2.78
2023-03-28T11:55:26.743Z,3.10
2023-03-28T11:58:21.095Z,3.13
2023-03-28T12:01:15.041Z,2.50
2023-03-28T12:04:10.932Z,2.60
2023-03-28T12:07:10.930Z,2.63
2023-03-28T12:10:06.994Z,2.20
2023-03-28T12:13:11.097Z,2.00
2023-03-28T12:16:03.347Z,2.20
2023-03-28T12:18:57.564Z,2.40
2023-03-28T12:21:51.304Z,2.20
2023-03-28T12:24:46.853Z,2.47
2023-03-28T12:27:45.135Z,2.08
2023-03-28T12:30:40.470Z,1.90
2023-03-28T12:33:40.834Z,2.05
2023-03-28T12:36:37.354Z,2.13
2023-03-28T12:39:36.681Z,2.10
2023-03-28T12:42:28.021Z,2.08
2023-03-28T12:45:21.640Z,2.22
2023-03-28T12:48:14.526Z,2.08
2023-03-28T12:51:08.356Z,2.00
2023-03-28T12:54:09.567Z,2.03
2023-03-28T12:57:03.976Z,1.90
2023-03-28T13:00:16.413Z,1.83
2023-03-28T13:03:18.675Z,1.90
2023-03-28T13:06:18.831Z,2.17
2023-03-28T13:09:28.737Z,1.93
2023-03-28T13:12:30.190Z,2.30
2023-03-28T13:15:50.814Z,2.38
2023-03-28T13:18:47.373Z,2.08
2023-03-28T13:21:47.736Z,2.10
2023-03-28T13:24:37.146Z,1.90
2023-03-28T13:27:33.137Z,2.05
2023-03-28T13:30:26.380Z,2.20
2023-03-28T13:33:24.383Z,1.90
2023-03-28T13:36:19.381Z,2.42
2023-03-28T13:39:11.095Z,2.17
2023-03-28T13:42:01.340Z,2.10
2023-03-28T13:45:03.158Z,1.90
2023-03-28T13:47:59.892Z,2.40
2023-03-28T13:50:55.350Z,2.60
2023-03-28T13:53:48.706Z,2.30
2023-03-28T13:56:40.511Z,2.05
2023-03-28T13:59:35.504Z,2.30
2023-03-28T14:02:33.169Z,2.63
2023-03-28T14:05:23.555Z,2.50
2023-03-28T14:08:25.188Z,3.00
2023-03-28T14:11:18.408Z,2.95
2023-03-28T14:14:11.704Z,2.70
2023-03-28T14:17:02.627Z,2.53
2023-03-28T14:19:53.316Z,2.58
2023-03-28T14:23:00.001Z,2.70
2023-03-28T14:25:50.059Z,2.50
2023-03-28T14:28:42.739Z,2.92
2023-03-28T14:31:32.806Z,3.00
2023-03-28T14:34:24.993Z,3.00
2023-03-28T14:37:18.415Z,2.80
2023-03-28T14:40:18.697Z,2.70
2023-03-28T14:43:08.648Z,3.25
2023-03-28T14:46:02.882Z,2.70
2023-03-28T14:48:53.677Z,2.30
2023-03-28T14:51:43.124Z,2.57
2023-03-28T14:54:34.548Z,2.50
2023-03-28T14:57:24.346Z,2.55
2023-03-28T15:00:17.200Z,2.50
2023-03-28T15:03:09.446Z,2.75
2023-03-28T15:05:59.377Z,2.73
2023-03-28T15:08:47.860Z,2.80
2023-03-28T15:11:41.176Z,2.70
2023-03-28T15:14:41.112Z,2.58
2023-03-28T15:17:29.681Z,2.30
2023-03-28T15:20:24.851Z,3.00
2023-03-28T15:23:21.447Z,3.05
2023-03-28T15:26:14.557Z,2.92
2023-03-28T15:29:03.794Z,3.67
2023-03-28T15:31:54.047Z,2.67
2023-03-28T15:34:48.892Z,2.83
2023-03-28T15:37:44.126Z,3.03
2023-03-28T15:40:39.129Z,2.85
2023-03-28T15:43:38.674Z,3.40
2023-03-28T15:46:32.872Z,2.67
2023-03-28T15:49:28.355Z,3.00
2023-03-28T15:52:20.035Z,3.03
2023-03-28T15:55:14.478Z,3.35
2023-03-28T15:58:05.050Z,3.20
2023-03-28T16:00:57.143Z,3.90
2023-03-28T16:03:45.657Z,3.70
2023-03-28T16:06:45.724Z,3.08
2023-03-28T16:09:34.893Z,4.10
2023-03-28T16:12:25.927Z,3.70
2023-03-28T16:15:14.759Z,3.30
2023-03-28T16:18:02.837Z,3.40
2023-03-28T16:20:51.207Z,3.38
2023-03-28T16:23:39.332Z,3.75
2023-03-28T16:26:27.732Z,3.88
2023-03-28T16:29:22.854Z,3.58
2023-03-28T16:32:13.621Z,3.53
2023-03-28T16:35:01.652Z,4.72
2023-03-28T16:37:49.998Z,4.15
2023-03-28T16:40:38.148Z,3.35
2023-03-28T16:43:26.718Z,4.22
2023-03-28T16:46:19.616Z,3.70
2023-03-28T16:49:07.865Z,3.55
2023-03-28T16:51:56.461Z,3.22
2023-03-28T16:54:48.372Z,3.30
2023-03-28T16:57:37.570Z,3.65
2023-03-28T17:00:25.638Z,3.87
2023-03-28T17:03:15.751Z,4.03
2023-03-28T17:06:04.930Z,4.15
2023-03-28T17:08:53.284Z,4.57
2023-03-28T17:11:42.784Z,4.43
2023-03-28T17:14:30.986Z,4.77
2023-03-28T17:17:19.932Z,5.95
2023-03-28T17:20:11.619Z,5.10
2023-03-28T17:22:59.645Z,4.70
2023-03-28T17:25:55.033Z,4.47
2023-03-28T17:28:43.460Z,4.80
2023-03-28T17:31:32.703Z,4.00
2023-03-28T17:34:21.653Z,3.85
2023-03-28T17:37:11.030Z,3.95
2023-03-28T17:40:00.272Z,4.28
2023-03-28T17:42:48.239Z,3.73
2023-03-28T17:45:36.398Z,3.55
2023-03-28T17:48:24.345Z,3.00
2023-03-28T17:51:12.650Z,3.28
2023-03-28T17:54:02.082Z,3.90
2023-03-28T17:56:50.482Z,3.70
2023-03-28T17:59:39.604Z,2.67
2023-03-28T18:02:27.904Z,3.15
2023-03-28T18:05:18.292Z,3.25
2023-03-28T18:08:06.441Z,3.17
2023-03-28T18:11:00.807Z,3.90
2023-03-28T18:13:49.226Z,3.20
2023-03-28T18:16:38.821Z,3.47
2023-03-28T18:19:27.075Z,2.85
2023-03-28T18:22:15.441Z,2.38
2023-03-28T18:25:03.924Z,2.33
2023-03-28T18:27:53.412Z,2.50
2023-03-28T18:30:42.128Z,2.75
2023-03-28T18:33:30.211Z,2.45
2023-03-28T18:36:18.261Z,2.45
2023-03-28T18:39:07.053Z,2.40
2023-03-28T18:41:55.383Z,3.35
2023-03-28T18:44:44.786Z,2.90
2023-03-28T18:47:33.160Z,3.25
2023-03-28T18:50:21.302Z,3.33
2023-03-28T18:53:09.884Z,3.63
2023-03-28T18:55:57.967Z,2.95
2023-03-28T18:58:48.896Z,3.83
2023-03-28T19:01:44.930Z,4.53
2023-03-28T19:04:34.016Z,3.58
2023-03-28T19:07:22.088Z,3.53
2023-03-28T19:10:11.814Z,4.28
2023-03-28T19:12:59.812Z,3.88
2023-03-28T19:15:59.086Z,4.93
2023-03-28T19:18:48.821Z,5.90
2023-03-28T19:21:36.980Z,4.00
2023-03-28T19:24:25.018Z,4.40
2023-03-28T19:27:13.144Z,4.70
2023-03-28T19:30:01.281Z,4.75
2023-03-28T19:32:49.308Z,4.40
2023-03-28T19:35:39.879Z,3.60
2023-03-28T19:38:29.504Z,4.15
2023-03-28T19:41:19.837Z,3.55
2023-03-28T19:44:08.108Z,3.72
2023-03-28T19:46:56.461Z,3.72
2023-03-28T19:49:44.635Z,2.87
2023-03-28T19:52:34.295Z,2.72
2023-03-28T19:55:22.683Z,2.60
2023-03-28T19:58:10.712Z,2.42
2023-03-28T20:00:58.944Z,3.38
2023-03-28T20:03:52.090Z,2.70
2023-03-28T20:06:40.087Z,2.08
2023-03-28T20:09:29.681Z,2.90
2023-03-28T20:12:18.282Z,2.35
2023-03-28T20:15:07.386Z,2.20
2023-03-28T20:17:55.943Z,2.57
2023-03-28T20:20:43.891Z,2.83
2023-03-28T20:23:34.073Z,2.63
2023-03-28T20:26:25.963Z,2.65
2023-03-28T20:29:14.889Z,2.88
2023-03-28T20:32:04.854Z,2.93
2023-03-28T20:34:53.350Z,2.95
2023-03-28T20:37:41.433Z,2.70
2023-03-28T20:40:29.532Z,2.65
2023-03-28T20:43:21.056Z,2.75
2023-03-28T20:46:09.771Z,2.40
2023-03-28T20:48:58.577Z,2.60
2023-03-28T20:51:46.610Z,2.15
2023-03-28T20:54:35.114Z,2.42
2023-03-28T20:57:25.546Z,2.38
2023-03-28T21:00:17.062Z,2.20
2023-03-28T21:03:05.742Z,2.45
2023-03-28T21:05:53.962Z,2.13
2023-03-28T21:08:50.141Z,2.70
2023-03-28T21:11:40.139Z,2.40
2023-03-28T21:14:28.109Z,2.60
2023-03-28T21:17:21.877Z,2.40
2023-03-28T21:20:11.498Z,2.03
2023-03-28T21:23:00.033Z,2.30
2023-03-28T21:25:52.795Z,2.50
2023-03-28T21:28:41.916Z,2.00
2023-03-28T21:31:30.722Z,2.10
2023-03-28T21:34:30.683Z,2.10
2023-03-28T21:37:18.677Z,2.10
2023-03-28T21:40:08.698Z,2.35
2023-03-28T21:42:56.668Z,2.03
2023-03-28T21:45:45.902Z,2.42
2023-03-28T21:48:34.226Z,2.20
2023-03-28T21:51:23.599Z,2.88
2023-03-28T21:54:11.980Z,2.30
2023-03-28T21:57:00.100Z,2.40
2023-03-28T21:59:48.180Z,2.63
2023-03-28T22:02:36.547Z,2.72
2023-03-28T22:05:29.691Z,2.40
2023-03-28T22:08:20.591Z,2.25
2023-03-28T22:11:14.295Z,2.77
2023-03-28T22:14:02.841Z,2.67
2023-03-28T22:16:51.258Z,2.72
2023-03-28T22:19:39.321Z,2.70
2023-03-28T22:22:35.811Z,2.50
2023-03-28T22:25:25.380Z,2.40
2023-03-28T22:28:13.939Z,2.70
2023-03-28T22:31:02.192Z,2.70
2023-03-28T22:33:50.429Z,2.70
2023-03-28T22:36:38.515Z,2.67
2023-03-28T22:39:27.079Z,2.83
2023-03-28T22:42:16.503Z,2.50
2023-03-28T22:45:05.490Z,2.47
2023-03-28T22:47:54.005Z,3.00
2023-03-28T22:50:44.150Z,3.10
2023-03-28T22:53:32.251Z,2.90
2023-03-28T22:56:20.317Z,3.13
2023-03-28T22:59:11.550Z,2.85
2023-03-28T23:02:01.273Z,2.90
2023-03-28T23:04:50.693Z,2.60
2023-03-28T23:07:41.312Z,3.17
2023-03-28T23:10:32.038Z,2.78
2023-03-28T23:13:20.120Z,2.65
2023-03-28T23:16:10.069Z,2.80
2023-03-28T23:18:58.376Z,2.83
2023-03-28T23:21:46.407Z,3.03
2023-03-28T23:24:35.542Z,3.00
2023-03-28T23:27:23.545Z,2.90
2023-03-28T23:30:14.224Z,2.92
2023-03-28T23:33:04.156Z,2.50
2023-03-28T23:35:52.210Z,2.80
2023-03-28T23:38:40.381Z,2.65
2023-03-28T23:41:28.369Z,2.85
2023-03-28T23:44:16.769Z,2.67
2023-03-28T23:47:05.704Z,2.80
2023-03-28T23:49:55.440Z,2.93
2023-03-28T23:52:43.470Z,2.53
2023-03-28T23:55:32.110Z,2.67
2023-03-28T23:58:20.142Z,2.60
